sensor_id;sensor_type;location;lat;lon;timestamp;temperature;humidity
6948;DHT22;3513;47.664;9.162;2024-03-23T00:53:38;9.20;95.40
6948;DHT22;3513;47.664;9.162;2024-03-23T00:56:04;9.30;96.60
6948;DHT22;3513;47.664;9.162;2024-03-23T00:58:30;9.10;96.30
6948;DHT22;3513;47.664;9.162;2024-03-23T01:00:56;9.10;96.50
6948;DHT22;3513;47.664;9.162;2024-03-23T01:03:21;9.00;96.70
6948;DHT22;3513;47.664;9.162;2024-03-23T01:05:47;9.10;97.40
6948;DHT22;3513;47.664;9.162;2024-03-23T01:08:14;9.20;97.50
6948;DHT22;3513;47.664;9.162;2024-03-23T01:10:39;9.10;97.40
6948;DHT22;3513;47.664;9.162;2024-03-23T01:13:05;9.00;98.20
6948;DHT22;3513;47.664;9.162;2024-03-23T01:15:31;9.10;97.90
6948;DHT22;3513;47.664;9.162;2024-03-23T01:17:56;8.80;97.70
6948;DHT22;3513;47.664;9.162;2024-03-23T01:20:22;9.00;99.20
6948;DHT22;3513;47.664;9.162;2024-03-23T01:22:47;9.00;99.30
6948;DHT22;3513;47.664;9.162;2024-03-23T01:25:13;9.20;99.60
6948;DHT22;3513;47.664;9.162;2024-03-23T01:27:38;9.00;98.60
6948;DHT22;3513;47.664;9.162;2024-03-23T01:30:04;9.00;98.60
6948;DHT22;3513;47.664;9.162;2024-03-23T01:32:30;8.90;99.00
6948;DHT22;3513;47.664;9.162;2024-03-23T01:34:55;9.10;98.60
6948;DHT22;3513;47.664;9.162;2024-03-23T01:37:21;9.30;98.20
6948;DHT22;3513;47.664;9.162;2024-03-23T01:39:46;9.20;98.80
6948;DHT22;3513;47.664;9.162;2024-03-23T01:42:12;9.30;98.10
6948;DHT22;3513;47.664;9.162;2024-03-23T01:44:38;9.20;99.00
6948;DHT22;3513;47.664;9.162;2024-03-23T01:47:03;9.10;99.20
6948;DHT22;3513;47.664;9.162;2024-03-23T01:49:29;9.10;99.00
6948;DHT22;3513;47.664;9.162;2024-03-23T01:51:55;9.10;98.80
6948;DHT22;3513;47.664;9.162;2024-03-23T01:54:21;8.90;99.40
6948;DHT22;3513;47.664;9.162;2024-03-23T01:56:47;8.90;99.90
6948;DHT22;3513;47.664;9.162;2024-03-23T01:59:13;9.00;99.90
6948;DHT22;3513;47.664;9.162;2024-03-23T02:01:39;8.90;99.90
6948;DHT22;3513;47.664;9.162;2024-03-23T02:04:05;8.80;99.90
6948;DHT22;3513;47.664;9.162;2024-03-23T02:06:30;9.00;99.90
6948;DHT22;3513;47.664;9.162;2024-03-23T02:08:56;9.00;99.90
6948;DHT22;3513;47.664;9.162;2024-03-23T02:11:22;9.10;99.90
6948;DHT22;3513;47.664;9.162;2024-03-23T02:13:48;9.00;99.90
6948;DHT22;3513;47.664;9.162;2024-03-23T02:16:13;9.10;99.90
6948;DHT22;3513;47.664;9.162;2024-03-23T02:18:39;9.20;99.90
6948;DHT22;3513;47.664;9.162;2024-03-23T02:21:04;9.20;99.90
6948;DHT22;3513;47.664;9.162;2024-03-23T02:23:30;9.20;99.90
6948;DHT22;3513;47.664;9.162;2024-03-23T02:25:56;9.30;99.90
6948;DHT22;3513;47.664;9.162;2024-03-23T02:28:22;9.20;99.90
6948;DHT22;3513;47.664;9.162;2024-03-23T02:30:50;9.20;99.90
6948;DHT22;3513;47.664;9.162;2024-03-23T02:33:16;9.20;99.90
6948;DHT22;3513;47.664;9.162;2024-03-23T02:35:43;9.20;99.90
6948;DHT22;3513;47.664;9.162;2024-03-23T02:38:08;9.20;99.90
6948;DHT22;3513;47.664;9.162;2024-03-23T02:40:34;9.10;99.90
6948;DHT22;3513;47.664;9.162;2024-03-23T02:43:00;9.10;99.90
6948;DHT22;3513;47.664;9.162;2024-03-23T02:45:25;9.10;99.90
6948;DHT22;3513;47.664;9.162;2024-03-23T02:47:51;9.30;99.90
6948;DHT22;3513;47.664;9.162;2024-03-23T02:50:21;9.30;99.90
6948;DHT22;3513;47.664;9.162;2024-03-23T02:52:47;9.30;99.90
6948;DHT22;3513;47.664;9.162;2024-03-23T02:55:13;9.20;99.90
6948;DHT22;3513;47.664;9.162;2024-03-23T02:57:38;9.20;99.90
6948;DHT22;3513;47.664;9.162;2024-03-23T03:00:05;9.10;99.90
6948;DHT22;3513;47.664;9.162;2024-03-23T03:02:31;9.20;99.90
6948;DHT22;3513;47.664;9.162;2024-03-23T03:04:57;9.30;99.90
6948;DHT22;3513;47.664;9.162;2024-03-23T03:07:23;9.10;99.90
6948;DHT22;3513;47.664;9.162;2024-03-23T03:09:48;9.30;99.90
6948;DHT22;3513;47.664;9.162;2024-03-23T03:12:14;9.40;99.90
6948;DHT22;3513;47.664;9.162;2024-03-23T03:14:40;9.40;99.90
6948;DHT22;3513;47.664;9.162;2024-03-23T03:17:05;9.30;99.90
6948;DHT22;3513;47.664;9.162;2024-03-23T03:19:31;9.40;99.90
6948;DHT22;3513;47.664;9.162;2024-03-23T03:21:57;9.40;99.90
6948;DHT22;3513;47.664;9.162;2024-03-23T03:24:23;9.40;99.90
6948;DHT22;3513;47.664;9.162;2024-03-23T03:26:48;9.30;99.90
6948;DHT22;3513;47.664;9.162;2024-03-23T03:29:15;9.20;99.90
6948;DHT22;3513;47.664;9.162;2024-03-23T03:31:41;9.30;99.90
6948;DHT22;3513;47.664;9.162;2024-03-23T03:34:06;9.30;99.90
6948;DHT22;3513;47.664;9.162;2024-03-23T03:36:32;9.50;99.90
6948;DHT22;3513;47.664;9.162;2024-03-23T03:38:57;9.30;99.90
6948;DHT22;3513;47.664;9.162;2024-03-23T03:41:23;9.30;99.90
6948;DHT22;3513;47.664;9.162;2024-03-23T03:43:48;9.40;99.90
6948;DHT22;3513;47.664;9.162;2024-03-23T03:46:14;9.50;99.90
6948;DHT22;3513;47.664;9.162;2024-03-23T03:48:39;9.40;99.90
6948;DHT22;3513;47.664;9.162;2024-03-23T03:51:05;9.30;99.90
6948;DHT22;3513;47.664;9.162;2024-03-23T03:53:31;9.30;99.90
6948;DHT22;3513;47.664;9.162;2024-03-23T03:56:00;9.20;99.90
6948;DHT22;3513;47.664;9.162;2024-03-23T03:58:25;9.10;99.90
6948;DHT22;3513;47.664;9.162;2024-03-23T04:00:51;9.10;99.90
6948;DHT22;3513;47.664;9.162;2024-03-23T04:03:16;9.10;99.90
6948;DHT22;3513;47.664;9.162;2024-03-23T04:05:42;9.00;99.90
6948;DHT22;3513;47.664;9.162;2024-03-23T04:08:07;8.90;99.90
6948;DHT22;3513;47.664;9.162;2024-03-23T04:10:33;8.80;99.90
6948;DHT22;3513;47.664;9.162;2024-03-23T04:12:59;8.80;99.90
6948;DHT22;3513;47.664;9.162;2024-03-23T04:15:24;8.80;99.90
6948;DHT22;3513;47.664;9.162;2024-03-23T04:17:50;8.80;99.90
6948;DHT22;3513;47.664;9.162;2024-03-23T04:20:16;8.70;99.90
6948;DHT22;3513;47.664;9.162;2024-03-23T04:22:45;8.90;99.90
6948;DHT22;3513;47.664;9.162;2024-03-23T04:25:10;9.10;99.90
6948;DHT22;3513;47.664;9.162;2024-03-23T04:27:37;9.20;99.90
6948;DHT22;3513;47.664;9.162;2024-03-23T04:30:03;9.10;99.90
6948;DHT22;3513;47.664;9.162;2024-03-23T04:32:35;9.10;99.90
6948;DHT22;3513;47.664;9.162;2024-03-23T04:35:00;9.00;99.90
6948;DHT22;3513;47.664;9.162;2024-03-23T04:37:26;9.10;99.90
6948;DHT22;3513;47.664;9.162;2024-03-23T04:39:51;9.20;99.90
6948;DHT22;3513;47.664;9.162;2024-03-23T04:42:17;9.30;99.90
6948;DHT22;3513;47.664;9.162;2024-03-23T04:44:42;9.30;99.90
6948;DHT22;3513;47.664;9.162;2024-03-23T04:47:08;9.20;99.90
6948;DHT22;3513;47.664;9.162;2024-03-23T04:49:34;9.20;99.90
6948;DHT22;3513;47.664;9.162;2024-03-23T04:52:05;9.20;99.90
6948;DHT22;3513;47.664;9.162;2024-03-23T04:54:30;9.20;99.90
6948;DHT22;3513;47.664;9.162;2024-03-23T04:56:57;9.20;99.90
6948;DHT22;3513;47.664;9.162;2024-03-23T04:59:23;9.10;99.90
6948;DHT22;3513;47.664;9.162;2024-03-23T05:01:48;9.10;99.90
6948;DHT22;3513;47.664;9.162;2024-03-23T05:04:14;9.20;99.90
6948;DHT22;3513;47.664;9.162;2024-03-23T05:06:39;9.30;99.90
6948;DHT22;3513;47.664;9.162;2024-03-23T05:09:05;9.30;99.90
6948;DHT22;3513;47.664;9.162;2024-03-23T05:11:37;9.40;99.90
6948;DHT22;3513;47.664;9.162;2024-03-23T05:14:03;9.50;99.90
6948;DHT22;3513;47.664;9.162;2024-03-23T05:16:28;9.50;99.90
6948;DHT22;3513;47.664;9.162;2024-03-23T05:18:54;9.60;99.90
6948;DHT22;3513;47.664;9.162;2024-03-23T05:21:20;9.60;99.60
6948;DHT22;3513;47.664;9.162;2024-03-23T05:23:45;9.60;99.80
6948;DHT22;3513;47.664;9.162;2024-03-23T05:26:11;9.60;99.90
6948;DHT22;3513;47.664;9.162;2024-03-23T05:28:37;9.70;99.90
6948;DHT22;3513;47.664;9.162;2024-03-23T05:31:02;9.70;99.90
6948;DHT22;3513;47.664;9.162;2024-03-23T05:33:28;9.70;99.90
6948;DHT22;3513;47.664;9.162;2024-03-23T05:36:03;9.80;99.90
6948;DHT22;3513;47.664;9.162;2024-03-23T05:38:29;9.90;99.30
6948;DHT22;3513;47.664;9.162;2024-03-23T05:40:55;10.00;98.20
6948;DHT22;3513;47.664;9.162;2024-03-23T05:43:22;10.00;97.80
6948;DHT22;3513;47.664;9.162;2024-03-23T05:45:57;10.00;97.70
6948;DHT22;3513;47.664;9.162;2024-03-23T05:48:23;10.10;97.20
6948;DHT22;3513;47.664;9.162;2024-03-23T05:50:49;10.40;96.80
6948;DHT22;3513;47.664;9.162;2024-03-23T05:53:15;10.90;96.10
6948;DHT22;3513;47.664;9.162;2024-03-23T05:55:41;11.30;96.10
6948;DHT22;3513;47.664;9.162;2024-03-23T05:58:07;11.40;95.60
6948;DHT22;3513;47.664;9.162;2024-03-23T06:00:32;11.40;96.00
6948;DHT22;3513;47.664;9.162;2024-03-23T06:02:58;11.40;97.40
6948;DHT22;3513;47.664;9.162;2024-03-23T06:05:24;11.20;98.40
6948;DHT22;3513;47.664;9.162;2024-03-23T06:07:49;11.10;98.70
6948;DHT22;3513;47.664;9.162;2024-03-23T06:10:15;11.00;99.50
6948;DHT22;3513;47.664;9.162;2024-03-23T06:12:41;11.00;99.90
6948;DHT22;3513;47.664;9.162;2024-03-23T06:15:07;11.20;99.90
6948;DHT22;3513;47.664;9.162;2024-03-23T06:17:36;11.20;99.90
6948;DHT22;3513;47.664;9.162;2024-03-23T06:20:02;11.30;99.90
6948;DHT22;3513;47.664;9.162;2024-03-23T06:22:27;11.30;99.90
6948;DHT22;3513;47.664;9.162;2024-03-23T06:24:53;11.30;99.90
6948;DHT22;3513;47.664;9.162;2024-03-23T06:27:18;11.30;99.90
6948;DHT22;3513;47.664;9.162;2024-03-23T06:29:44;11.10;99.90
6948;DHT22;3513;47.664;9.162;2024-03-23T06:32:09;11.10;99.90
6948;DHT22;3513;47.664;9.162;2024-03-23T06:34:35;10.80;99.90
6948;DHT22;3513;47.664;9.162;2024-03-23T06:37:00;10.90;99.90
6948;DHT22;3513;47.664;9.162;2024-03-23T06:39:26;10.80;99.90
6948;DHT22;3513;47.664;9.162;2024-03-23T06:41:53;10.70;99.90
6948;DHT22;3513;47.664;9.162;2024-03-23T06:44:19;10.70;99.90
6948;DHT22;3513;47.664;9.162;2024-03-23T06:46:45;10.60;99.90
6948;DHT22;3513;47.664;9.162;2024-03-23T06:49:11;10.70;99.90
6948;DHT22;3513;47.664;9.162;2024-03-23T06:51:36;10.60;99.90
6948;DHT22;3513;47.664;9.162;2024-03-23T06:54:03;11.00;99.90
6948;DHT22;3513;47.664;9.162;2024-03-23T06:56:29;10.60;99.90
6948;DHT22;3513;47.664;9.162;2024-03-23T06:58:55;10.60;99.70
6948;DHT22;3513;47.664;9.162;2024-03-23T07:01:21;10.60;99.70
6948;DHT22;3513;47.664;9.162;2024-03-23T07:03:46;10.60;99.60
6948;DHT22;3513;47.664;9.162;2024-03-23T07:06:12;10.60;99.90
6948;DHT22;3513;47.664;9.162;2024-03-23T07:08:37;10.60;99.60
6948;DHT22;3513;47.664;9.162;2024-03-23T07:11:03;10.70;99.20
6948;DHT22;3513;47.664;9.162;2024-03-23T07:13:30;10.70;98.70
6948;DHT22;3513;47.664;9.162;2024-03-23T07:15:56;11.00;98.10
6948;DHT22;3513;47.664;9.162;2024-03-23T07:18:22;10.80;98.30
6948;DHT22;3513;47.664;9.162;2024-03-23T07:20:55;10.80;97.70
6948;DHT22;3513;47.664;9.162;2024-03-23T07:23:22;10.80;97.90
6948;DHT22;3513;47.664;9.162;2024-03-23T07:26:04;10.90;97.80
6948;DHT22;3513;47.664;9.162;2024-03-23T07:28:31;10.80;97.60
6948;DHT22;3513;47.664;9.162;2024-03-23T07:31:08;11.00;97.40
6948;DHT22;3513;47.664;9.162;2024-03-23T07:33:35;11.00;96.90
6948;DHT22;3513;47.664;9.162;2024-03-23T07:36:01;11.00;97.40
6948;DHT22;3513;47.664;9.162;2024-03-23T07:38:28;11.00;97.50
6948;DHT22;3513;47.664;9.162;2024-03-23T07:41:06;11.00;97.90
6948;DHT22;3513;47.664;9.162;2024-03-23T07:43:31;10.90;97.50
6948;DHT22;3513;47.664;9.162;2024-03-23T07:45:58;11.00;98.30
6948;DHT22;3513;47.664;9.162;2024-03-23T07:48:23;10.90;98.50
6948;DHT22;3513;47.664;9.162;2024-03-23T07:53:27;10.90;99.40
6948;DHT22;3513;47.664;9.162;2024-03-23T07:55:57;10.90;99.20
6948;DHT22;3513;47.664;9.162;2024-03-23T07:58:23;11.10;98.70
6948;DHT22;3513;47.664;9.162;2024-03-23T08:00:50;11.10;98.30
6948;DHT22;3513;47.664;9.162;2024-03-23T08:03:15;11.20;97.70
6948;DHT22;3513;47.664;9.162;2024-03-23T08:05:41;11.30;97.10
6948;DHT22;3513;47.664;9.162;2024-03-23T08:08:06;11.30;97.60
6948;DHT22;3513;47.664;9.162;2024-03-23T08:10:32;11.30;96.30
6948;DHT22;3513;47.664;9.162;2024-03-23T08:12:58;11.30;96.90
6948;DHT22;3513;47.664;9.162;2024-03-23T08:15:23;11.30;96.30
6948;DHT22;3513;47.664;9.162;2024-03-23T08:17:49;11.40;96.70
6948;DHT22;3513;47.664;9.162;2024-03-23T08:20:15;11.30;96.60
6948;DHT22;3513;47.664;9.162;2024-03-23T08:22:41;11.20;96.80
6948;DHT22;3513;47.664;9.162;2024-03-23T08:25:06;11.10;97.00
6948;DHT22;3513;47.664;9.162;2024-03-23T08:27:32;11.00;96.90
6948;DHT22;3513;47.664;9.162;2024-03-23T08:29:58;10.90;95.40
6948;DHT22;3513;47.664;9.162;2024-03-23T08:32:24;10.30;92.60
6948;DHT22;3513;47.664;9.162;2024-03-23T08:34:49;9.60;94.00
6948;DHT22;3513;47.664;9.162;2024-03-23T08:37:15;9.10;94.90
6948;DHT22;3513;47.664;9.162;2024-03-23T08:39:43;8.90;95.70
6948;DHT22;3513;47.664;9.162;2024-03-23T08:42:09;8.70;96.60
6948;DHT22;3513;47.664;9.162;2024-03-23T08:44:34;8.50;98.00
6948;DHT22;3513;47.664;9.162;2024-03-23T08:47:01;8.50;98.60
6948;DHT22;3513;47.664;9.162;2024-03-23T08:49:26;8.50;98.30
6948;DHT22;3513;47.664;9.162;2024-03-23T08:51:52;8.40;98.20
6948;DHT22;3513;47.664;9.162;2024-03-23T08:54:18;8.40;99.10
6948;DHT22;3513;47.664;9.162;2024-03-23T08:56:45;8.40;99.90
6948;DHT22;3513;47.664;9.162;2024-03-23T08:59:11;8.40;99.90
6948;DHT22;3513;47.664;9.162;2024-03-23T09:01:37;8.40;99.70
6948;DHT22;3513;47.664;9.162;2024-03-23T09:04:03;8.50;99.60
6948;DHT22;3513;47.664;9.162;2024-03-23T09:06:29;8.60;99.40
6948;DHT22;3513;47.664;9.162;2024-03-23T09:08:55;8.60;99.40
6948;DHT22;3513;47.664;9.162;2024-03-23T09:11:20;8.70;98.30
6948;DHT22;3513;47.664;9.162;2024-03-23T09:13:46;8.70;98.40
6948;DHT22;3513;47.664;9.162;2024-03-23T09:16:11;8.70;98.10
6948;DHT22;3513;47.664;9.162;2024-03-23T09:18:38;8.70;98.00
6948;DHT22;3513;47.664;9.162;2024-03-23T09:21:10;8.70;98.40
6948;DHT22;3513;47.664;9.162;2024-03-23T09:23:36;8.70;97.90
6948;DHT22;3513;47.664;9.162;2024-03-23T09:26:05;8.70;97.90
6948;DHT22;3513;47.664;9.162;2024-03-23T09:28:33;8.70;96.50
6948;DHT22;3513;47.664;9.162;2024-03-23T09:31:05;8.70;96.00
6948;DHT22;3513;47.664;9.162;2024-03-23T09:33:33;8.80;96.10
6948;DHT22;3513;47.664;9.162;2024-03-23T09:36:03;8.80;97.20
6948;DHT22;3513;47.664;9.162;2024-03-23T09:38:28;8.90;97.60
6948;DHT22;3513;47.664;9.162;2024-03-23T09:40:54;9.00;96.80
6948;DHT22;3513;47.664;9.162;2024-03-23T09:43:20;9.00;96.20
6948;DHT22;3513;47.664;9.162;2024-03-23T09:45:46;8.90;96.80
6948;DHT22;3513;47.664;9.162;2024-03-23T09:48:12;8.90;95.00
6948;DHT22;3513;47.664;9.162;2024-03-23T09:50:39;8.90;95.00
6948;DHT22;3513;47.664;9.162;2024-03-23T09:53:07;9.00;94.90
6948;DHT22;3513;47.664;9.162;2024-03-23T09:55:33;9.00;95.80
6948;DHT22;3513;47.664;9.162;2024-03-23T09:57:59;9.00;94.80
6948;DHT22;3513;47.664;9.162;2024-03-23T10:00:25;8.90;94.40
6948;DHT22;3513;47.664;9.162;2024-03-23T10:02:51;8.90;93.60
6948;DHT22;3513;47.664;9.162;2024-03-23T10:05:21;9.00;93.30
6948;DHT22;3513;47.664;9.162;2024-03-23T10:07:50;9.00;93.10
6948;DHT22;3513;47.664;9.162;2024-03-23T10:10:16;8.90;92.80
6948;DHT22;3513;47.664;9.162;2024-03-23T10:12:46;9.00;92.50
6948;DHT22;3513;47.664;9.162;2024-03-23T10:15:22;9.10;92.90
6948;DHT22;3513;47.664;9.162;2024-03-23T10:17:48;9.10;92.80
6948;DHT22;3513;47.664;9.162;2024-03-23T10:20:19;9.10;91.50
6948;DHT22;3513;47.664;9.162;2024-03-23T10:22:45;9.20;91.70
6948;DHT22;3513;47.664;9.162;2024-03-23T10:25:11;9.30;91.50
6948;DHT22;3513;47.664;9.162;2024-03-23T10:27:37;9.20;91.30
6948;DHT22;3513;47.664;9.162;2024-03-23T10:30:13;9.30;91.30
6948;DHT22;3513;47.664;9.162;2024-03-23T10:32:42;9.40;90.20
6948;DHT22;3513;47.664;9.162;2024-03-23T10:35:18;9.50;89.40
6948;DHT22;3513;47.664;9.162;2024-03-23T10:37:44;9.40;89.60
6948;DHT22;3513;47.664;9.162;2024-03-23T10:40:11;9.40;89.50
6948;DHT22;3513;47.664;9.162;2024-03-23T10:42:38;9.40;89.70
6948;DHT22;3513;47.664;9.162;2024-03-23T10:45:04;9.60;89.20
6948;DHT22;3513;47.664;9.162;2024-03-23T10:47:31;9.90;90.50
6948;DHT22;3513;47.664;9.162;2024-03-23T10:49:57;9.60;91.10
6948;DHT22;3513;47.664;9.162;2024-03-23T10:52:23;9.70;90.00
6948;DHT22;3513;47.664;9.162;2024-03-23T10:54:51;9.70;90.10
6948;DHT22;3513;47.664;9.162;2024-03-23T10:57:22;9.70;89.60
6948;DHT22;3513;47.664;9.162;2024-03-23T10:59:48;9.80;89.20
6948;DHT22;3513;47.664;9.162;2024-03-23T11:02:21;9.80;87.40
6948;DHT22;3513;47.664;9.162;2024-03-23T11:04:47;9.90;88.00
6948;DHT22;3513;47.664;9.162;2024-03-23T11:07:29;9.90;86.20
6948;DHT22;3513;47.664;9.162;2024-03-23T11:09:56;10.00;83.60
6948;DHT22;3513;47.664;9.162;2024-03-23T11:15:02;10.20;83.90
6948;DHT22;3513;47.664;9.162;2024-03-23T11:17:28;10.40;81.10
6948;DHT22;3513;47.664;9.162;2024-03-23T11:20:04;10.70;80.30
6948;DHT22;3513;47.664;9.162;2024-03-23T11:22:47;10.30;75.90
6948;DHT22;3513;47.664;9.162;2024-03-23T11:25:25;11.20;76.90
6948;DHT22;3513;47.664;9.162;2024-03-23T11:27:53;11.30;71.60
6948;DHT22;3513;47.664;9.162;2024-03-23T11:30:27;11.30;68.20
6948;DHT22;3513;47.664;9.162;2024-03-23T11:32:57;11.20;65.90
6948;DHT22;3513;47.664;9.162;2024-03-23T11:38:14;10.90;65.00
6948;DHT22;3513;47.664;9.162;2024-03-23T11:43:07;10.80;66.90
6948;DHT22;3513;47.664;9.162;2024-03-23T11:45:35;11.10;64.10
6948;DHT22;3513;47.664;9.162;2024-03-23T11:50:34;11.10;61.30
6948;DHT22;3513;47.664;9.162;2024-03-23T11:53:16;11.20;59.00
6948;DHT22;3513;47.664;9.162;2024-03-23T11:56:02;11.20;59.90
6948;DHT22;3513;47.664;9.162;2024-03-23T11:58:28;11.30;57.40
6948;DHT22;3513;47.664;9.162;2024-03-23T12:00:58;11.30;56.10
6948;DHT22;3513;47.664;9.162;2024-03-23T12:03:28;11.10;57.20
6948;DHT22;3513;47.664;9.162;2024-03-23T12:05:55;11.20;58.00
6948;DHT22;3513;47.664;9.162;2024-03-23T12:08:28;11.30;58.20
6948;DHT22;3513;47.664;9.162;2024-03-23T12:13:37;11.50;59.00
6948;DHT22;3513;47.664;9.162;2024-03-23T12:16:12;11.40;57.20
6948;DHT22;3513;47.664;9.162;2024-03-23T12:18:43;11.50;57.60
6948;DHT22;3513;47.664;9.162;2024-03-23T12:21:09;11.70;55.90
6948;DHT22;3513;47.664;9.162;2024-03-23T12:23:35;11.60;55.90
6948;DHT22;3513;47.664;9.162;2024-03-23T12:26:01;11.70;57.80
6948;DHT22;3513;47.664;9.162;2024-03-23T12:28:27;11.80;57.00
6948;DHT22;3513;47.664;9.162;2024-03-23T12:30:53;11.30;56.20
6948;DHT22;3513;47.664;9.162;2024-03-23T12:33:19;11.30;63.80
6948;DHT22;3513;47.664;9.162;2024-03-23T12:35:45;11.40;63.50
6948;DHT22;3513;47.664;9.162;2024-03-23T12:38:11;11.40;60.30
6948;DHT22;3513;47.664;9.162;2024-03-23T12:40:36;11.50;54.50
6948;DHT22;3513;47.664;9.162;2024-03-23T12:43:02;11.70;54.80
6948;DHT22;3513;47.664;9.162;2024-03-23T12:45:27;11.90;55.40
6948;DHT22;3513;47.664;9.162;2024-03-23T12:47:53;11.50;54.70
6948;DHT22;3513;47.664;9.162;2024-03-23T12:50:19;11.30;56.30
6948;DHT22;3513;47.664;9.162;2024-03-23T12:52:45;11.10;59.90
6948;DHT22;3513;47.664;9.162;2024-03-23T12:55:11;10.90;62.30
6948;DHT22;3513;47.664;9.162;2024-03-23T12:57:36;10.90;62.20
6948;DHT22;3513;47.664;9.162;2024-03-23T13:00:02;10.70;61.90
6948;DHT22;3513;47.664;9.162;2024-03-23T13:02:29;10.80;62.20
6948;DHT22;3513;47.664;9.162;2024-03-23T13:04:55;10.60;61.20
6948;DHT22;3513;47.664;9.162;2024-03-23T13:07:22;10.60;61.80
6948;DHT22;3513;47.664;9.162;2024-03-23T13:09:50;10.50;60.40
6948;DHT22;3513;47.664;9.162;2024-03-23T13:12:16;10.30;60.00
6948;DHT22;3513;47.664;9.162;2024-03-23T13:14:44;10.40;59.60
6948;DHT22;3513;47.664;9.162;2024-03-23T13:17:09;10.20;59.10
6948;DHT22;3513;47.664;9.162;2024-03-23T13:19:35;10.40;58.80
6948;DHT22;3513;47.664;9.162;2024-03-23T13:22:01;10.40;57.60
6948;DHT22;3513;47.664;9.162;2024-03-23T13:24:27;10.40;57.70
6948;DHT22;3513;47.664;9.162;2024-03-23T13:26:54;10.40;57.80
6948;DHT22;3513;47.664;9.162;2024-03-23T13:29:20;10.50;58.10
6948;DHT22;3513;47.664;9.162;2024-03-23T13:31:46;10.50;58.80
6948;DHT22;3513;47.664;9.162;2024-03-23T13:34:12;10.70;59.40
6948;DHT22;3513;47.664;9.162;2024-03-23T13:36:44;10.90;58.30
6948;DHT22;3513;47.664;9.162;2024-03-23T13:39:11;11.00;57.80
6948;DHT22;3513;47.664;9.162;2024-03-23T13:41:40;10.90;57.40
6948;DHT22;3513;47.664;9.162;2024-03-23T13:44:13;10.90;57.90
6948;DHT22;3513;47.664;9.162;2024-03-23T13:46:40;11.20;58.30
6948;DHT22;3513;47.664;9.162;2024-03-23T13:49:10;11.40;58.40
6948;DHT22;3513;47.664;9.162;2024-03-23T13:51:38;11.50;56.20
6948;DHT22;3513;47.664;9.162;2024-03-23T13:54:03;11.50;56.50
6948;DHT22;3513;47.664;9.162;2024-03-23T13:56:29;11.70;54.50
6948;DHT22;3513;47.664;9.162;2024-03-23T13:58:58;11.90;54.30
6948;DHT22;3513;47.664;9.162;2024-03-23T14:01:23;12.10;53.90
6948;DHT22;3513;47.664;9.162;2024-03-23T14:03:50;12.30;53.60
6948;DHT22;3513;47.664;9.162;2024-03-23T14:06:15;12.20;53.80
6948;DHT22;3513;47.664;9.162;2024-03-23T14:08:41;12.40;53.20
6948;DHT22;3513;47.664;9.162;2024-03-23T14:11:08;12.40;53.10
6948;DHT22;3513;47.664;9.162;2024-03-23T14:13:34;12.40;52.10
6948;DHT22;3513;47.664;9.162;2024-03-23T14:16:01;12.30;51.00
6948;DHT22;3513;47.664;9.162;2024-03-23T14:18:27;12.20;51.70
6948;DHT22;3513;47.664;9.162;2024-03-23T14:20:56;11.90;50.60
6948;DHT22;3513;47.664;9.162;2024-03-23T14:23:29;11.50;49.90
6948;DHT22;3513;47.664;9.162;2024-03-23T14:25:56;11.00;52.60
6948;DHT22;3513;47.664;9.162;2024-03-23T14:28:22;10.80;54.60
6948;DHT22;3513;47.664;9.162;2024-03-23T14:30:48;10.40;53.60
6948;DHT22;3513;47.664;9.162;2024-03-23T14:33:15;10.60;55.10
6948;DHT22;3513;47.664;9.162;2024-03-23T14:35:41;11.20;55.60
6948;DHT22;3513;47.664;9.162;2024-03-23T14:38:06;11.70;53.80
6948;DHT22;3513;47.664;9.162;2024-03-23T14:40:33;12.10;51.10
6948;DHT22;3513;47.664;9.162;2024-03-23T14:42:58;12.30;50.50
6948;DHT22;3513;47.664;9.162;2024-03-23T14:45:24;12.60;50.00
6948;DHT22;3513;47.664;9.162;2024-03-23T14:47:53;13.10;49.40
6948;DHT22;3513;47.664;9.162;2024-03-23T14:50:18;12.90;49.20
6948;DHT22;3513;47.664;9.162;2024-03-23T14:52:45;13.30;49.70
6948;DHT22;3513;47.664;9.162;2024-03-23T14:55:14;13.60;49.60
6948;DHT22;3513;47.664;9.162;2024-03-23T14:57:39;13.50;48.00
6948;DHT22;3513;47.664;9.162;2024-03-23T15:00:09;13.30;47.50
6948;DHT22;3513;47.664;9.162;2024-03-23T15:02:39;13.20;48.10
6948;DHT22;3513;47.664;9.162;2024-03-23T15:05:05;13.40;49.20
6948;DHT22;3513;47.664;9.162;2024-03-23T15:07:35;13.90;49.80
6948;DHT22;3513;47.664;9.162;2024-03-23T15:10:01;14.00;47.70
6948;DHT22;3513;47.664;9.162;2024-03-23T15:12:26;13.90;47.50
6948;DHT22;3513;47.664;9.162;2024-03-23T15:14:52;13.60;48.20
6948;DHT22;3513;47.664;9.162;2024-03-23T15:17:18;13.80;46.90
6948;DHT22;3513;47.664;9.162;2024-03-23T15:19:44;13.20;47.20
6948;DHT22;3513;47.664;9.162;2024-03-23T15:22:09;13.30;47.30
6948;DHT22;3513;47.664;9.162;2024-03-23T15:24:36;13.90;46.90
6948;DHT22;3513;47.664;9.162;2024-03-23T15:27:02;13.90;47.00
6948;DHT22;3513;47.664;9.162;2024-03-23T15:29:28;13.40;47.70
6948;DHT22;3513;47.664;9.162;2024-03-23T15:31:54;13.10;47.10
6948;DHT22;3513;47.664;9.162;2024-03-23T15:34:19;13.40;47.60
6948;DHT22;3513;47.664;9.162;2024-03-23T15:36:50;13.70;47.10
6948;DHT22;3513;47.664;9.162;2024-03-23T15:39:18;13.60;46.30
6948;DHT22;3513;47.664;9.162;2024-03-23T15:41:47;13.40;46.10
6948;DHT22;3513;47.664;9.162;2024-03-23T15:44:13;13.30;45.20
6948;DHT22;3513;47.664;9.162;2024-03-23T15:46:38;13.70;44.40
6948;DHT22;3513;47.664;9.162;2024-03-23T15:49:04;14.00;42.80
6948;DHT22;3513;47.664;9.162;2024-03-23T15:51:30;13.90;42.90
6948;DHT22;3513;47.664;9.162;2024-03-23T15:53:59;14.00;43.00
6948;DHT22;3513;47.664;9.162;2024-03-23T15:56:25;13.80;43.50
6948;DHT22;3513;47.664;9.162;2024-03-23T15:58:50;14.10;43.20
6948;DHT22;3513;47.664;9.162;2024-03-23T16:01:16;14.20;43.30
6948;DHT22;3513;47.664;9.162;2024-03-23T16:03:41;13.40;41.80
6948;DHT22;3513;47.664;9.162;2024-03-23T16:06:08;12.70;43.70
6948;DHT22;3513;47.664;9.162;2024-03-23T16:08:34;12.20;43.70
6948;DHT22;3513;47.664;9.162;2024-03-23T16:11:04;12.40;44.60
6948;DHT22;3513;47.664;9.162;2024-03-23T16:13:30;12.70;42.80
6948;DHT22;3513;47.664;9.162;2024-03-23T16:16:00;12.40;42.10
6948;DHT22;3513;47.664;9.162;2024-03-23T16:18:26;11.80;41.40
6948;DHT22;3513;47.664;9.162;2024-03-23T16:21:00;11.40;42.00
6948;DHT22;3513;47.664;9.162;2024-03-23T16:23:26;11.30;42.60
6948;DHT22;3513;47.664;9.162;2024-03-23T16:25:53;11.00;42.50
6948;DHT22;3513;47.664;9.162;2024-03-23T16:28:32;11.10;44.30
6948;DHT22;3513;47.664;9.162;2024-03-23T16:31:03;11.60;44.20
6948;DHT22;3513;47.664;9.162;2024-03-23T16:33:29;12.40;42.10
6948;DHT22;3513;47.664;9.162;2024-03-23T16:38:32;12.00;41.70
6948;DHT22;3513;47.664;9.162;2024-03-23T16:41:00;11.60;42.30
6948;DHT22;3513;47.664;9.162;2024-03-23T16:43:26;11.20;42.90
6948;DHT22;3513;47.664;9.162;2024-03-23T16:48:18;11.00;48.80
6948;DHT22;3513;47.664;9.162;2024-03-23T16:50:44;10.80;50.70
6948;DHT22;3513;47.664;9.162;2024-03-23T16:53:09;11.00;51.60
6948;DHT22;3513;47.664;9.162;2024-03-23T16:55:35;11.20;51.80
6948;DHT22;3513;47.664;9.162;2024-03-23T16:58:01;11.00;51.90
6948;DHT22;3513;47.664;9.162;2024-03-23T17:00:26;10.70;52.70
6948;DHT22;3513;47.664;9.162;2024-03-23T17:02:52;10.50;53.80
6948;DHT22;3513;47.664;9.162;2024-03-23T17:05:17;10.30;53.10
6948;DHT22;3513;47.664;9.162;2024-03-23T17:07:43;10.00;52.10
6948;DHT22;3513;47.664;9.162;2024-03-23T17:10:10;9.80;51.00
6948;DHT22;3513;47.664;9.162;2024-03-23T17:12:35;9.60;50.80
6948;DHT22;3513;47.664;9.162;2024-03-23T17:15:05;9.60;51.80
6948;DHT22;3513;47.664;9.162;2024-03-23T17:17:33;9.50;52.00
6948;DHT22;3513;47.664;9.162;2024-03-23T17:20:00;9.40;51.90